EGGW

London Luton Airport

London, United Kingdom
METAR EGGW 122150Z AUTO 19008KT 140V230 9999 NCD 09/07 Q1010
Observed Flight Rules
Nov-12 @ 21:50 UTC (40 minutes ago) Visual Flight Rules
Wind Visibility Clouds
190° at 8 knots 10,000+ meters
  • Clear skies
Temperatures Readings
Current 9°C / 48°F
Dewpoint 7°C / 45°F
Humidity 87%
Altimeter 29.82" Hg
Pressure 1010 hPa
Elevation 160
METAR EGGW 122150Z AUTO 19008KT 140V230 9999 NCD 09/07 Q1010
Observed Flight Rules
Nov-12 @ 21:50 UTC
(40 minutes ago)
VFR
Wind Visibility
190° at 8 knots 10,000+ meters
Clouds
  • Clear skies
Temperature Dewpoint
9°C / 48°F 7°C / 45°F
Humidity Altimeter Pressure
87% 29.82" Hg 1010 hPa